createdAt,value
2023-05-11T00:00:42.753Z,101699.66
2023-05-11T00:01:44.561Z,101706.03
2023-05-11T00:02:46.423Z,101701.66
2023-05-11T00:03:48.266Z,101706.19
2023-05-11T00:04:50.096Z,101699.97
2023-05-11T00:05:51.951Z,101707.19
2023-05-11T00:06:55.335Z,101701.97
2023-05-11T00:07:57.116Z,101700.97
2023-05-11T00:08:58.890Z,101699.25
2023-05-11T00:10:01.125Z,101702.97
2023-05-11T00:11:02.932Z,101708.34
2023-05-11T00:12:05.480Z,101711.19
2023-05-11T00:13:07.320Z,101712.88
2023-05-11T00:14:09.129Z,101711.19
2023-05-11T00:15:11.332Z,101706.97
2023-05-11T00:16:13.279Z,101706.97
2023-05-11T00:17:15.138Z,101712.38
2023-05-11T00:18:16.925Z,101713.38
2023-05-11T00:19:18.737Z,101706.13
2023-05-11T00:20:22.004Z,101715.19
2023-05-11T00:21:23.867Z,101711.69
2023-05-11T00:22:25.665Z,101707.13
2023-05-11T00:23:27.558Z,101708.97
2023-05-11T00:24:29.688Z,101711.81
2023-05-11T00:25:31.461Z,101711.81
2023-05-11T00:26:33.306Z,101713.69
2023-05-11T00:27:35.208Z,101716.38
2023-05-11T00:28:36.977Z,101712.00
2023-05-11T00:29:38.891Z,101697.88
2023-05-11T00:30:41.501Z,101710.44
2023-05-11T00:31:43.359Z,101710.44
2023-05-11T00:32:45.461Z,101715.00
2023-05-11T00:33:47.355Z,101715.81
2023-05-11T00:34:49.225Z,101718.69
2023-05-11T00:35:51.592Z,101717.81
2023-05-11T00:36:53.656Z,101720.66
2023-05-11T00:37:55.552Z,101725.91
2023-05-11T00:38:57.351Z,101727.91
2023-05-11T00:39:59.315Z,101719.13
2023-05-11T00:41:01.297Z,101721.84
2023-05-11T00:42:03.924Z,101722.66
2023-05-11T00:43:05.889Z,101722.84
2023-05-11T00:44:08.506Z,101714.75
2023-05-11T00:45:11.364Z,101722.84
2023-05-11T00:46:14.471Z,101720.97
2023-05-11T00:47:16.370Z,101724.66
2023-05-11T00:48:18.210Z,101728.38
2023-05-11T00:49:21.615Z,101726.66
2023-05-11T00:50:24.317Z,101725.84
2023-05-11T00:51:26.396Z,101735.63
2023-05-11T00:52:28.270Z,101729.53
2023-05-11T00:53:30.194Z,101725.97
2023-05-11T00:54:32.083Z,101732.38
2023-05-11T00:55:34.242Z,101736.94
2023-05-11T00:56:36.360Z,101737.94
2023-05-11T00:57:38.889Z,101734.38
2023-05-11T00:58:41.208Z,101734.38
2023-05-11T00:59:43.146Z,101728.59
2023-05-11T01:00:44.966Z,101736.38
2023-05-11T01:01:47.012Z,101735.53
2023-05-11T01:02:49.162Z,101740.94
2023-05-11T01:03:51.143Z,101738.38
2023-05-11T01:04:53.125Z,101734.97
2023-05-11T01:06:13.279Z,101742.06
2023-05-11T01:07:32.462Z,101744.00
2023-05-11T01:08:43.091Z,101710.22
2023-05-11T01:09:54.907Z,101744.16
2023-05-11T01:11:06.096Z,101743.16
2023-05-11T01:12:38.763Z,101737.44
2023-05-11T01:13:46.047Z,101734.06
2023-05-11T01:15:10.981Z,101739.44
2023-05-11T01:16:21.689Z,101741.44
2023-05-11T01:17:38.200Z,101741.44
2023-05-11T01:18:49.764Z,101743.63
2023-05-11T01:20:02.664Z,101742.75
2023-05-11T01:21:06.941Z,101749.16
2023-05-11T01:22:47.919Z,101748.00
2023-05-11T01:24:14.373Z,101742.84
2023-05-11T01:25:22.582Z,101743.44
2023-05-11T01:26:46.307Z,101740.06
2023-05-11T01:28:15.510Z,101739.75
2023-05-11T01:29:36.074Z,101747.16
2023-05-11T01:30:43.136Z,101742.06
2023-05-11T01:31:47.979Z,101745.19
2023-05-11T01:32:51.073Z,101749.03
2023-05-11T01:34:00.683Z,101747.63
2023-05-11T01:35:17.962Z,101755.41
2023-05-11T01:36:21.298Z,101753.03
2023-05-11T01:37:26.097Z,101745.09
2023-05-11T01:38:30.873Z,101751.47
2023-05-11T01:39:40.089Z,101737.91
2023-05-11T01:40:43.798Z,101732.69
2023-05-11T01:41:50.713Z,101742.16
2023-05-11T01:43:02.501Z,101748.94
2023-05-11T01:44:09.661Z,101749.94
2023-05-11T01:45:13.863Z,101748.25
2023-05-11T01:46:17.153Z,101751.94
2023-05-11T01:47:23.267Z,101744.16
2023-05-11T01:48:28.153Z,101745.84
2023-05-11T01:49:34.193Z,101750.56
2023-05-11T01:50:37.842Z,101744.16
2023-05-11T01:51:42.323Z,101746.16
2023-05-11T01:52:46.621Z,101739.91
2023-05-11T01:53:49.246Z,101751.56
2023-05-11T01:54:55.452Z,101751.56
2023-05-11T01:55:59.452Z,101750.13
2023-05-11T01:57:03.651Z,101746.47
2023-05-11T01:58:08.804Z,101751.84
2023-05-11T01:59:12.969Z,101750.84
2023-05-11T02:00:16.896Z,101750.00
2023-05-11T02:01:19.808Z,101750.00
2023-05-11T02:02:23.033Z,101747.59
2023-05-11T02:03:28.341Z,101747.44
2023-05-11T02:04:31.856Z,101751.13
2023-05-11T02:05:35.151Z,101752.81
2023-05-11T02:06:39.502Z,101752.97
2023-05-11T02:07:44.383Z,101742.50
2023-05-11T02:08:48.391Z,101748.44
2023-05-11T02:09:52.686Z,101754.13
2023-05-11T02:10:56.239Z,101761.19
2023-05-11T02:12:00.709Z,101758.50
2023-05-11T02:13:05.323Z,101755.81
2023-05-11T02:14:10.101Z,101758.69
2023-05-11T02:15:13.033Z,101762.19
2023-05-11T02:16:16.656Z,101757.81
2023-05-11T02:17:22.039Z,101753.88
2023-05-11T02:18:24.104Z,101761.50
2023-05-11T02:19:34.321Z,101757.81
2023-05-11T02:20:36.791Z,101757.81
2023-05-11T02:21:40.167Z,101758.81
2023-05-11T02:22:43.216Z,101760.81
2023-05-11T02:23:47.860Z,101768.88
2023-05-11T02:24:50.337Z,101767.88
2023-05-11T02:25:52.965Z,101774.28
2023-05-11T02:26:55.241Z,101772.56
2023-05-11T02:27:57.658Z,101777.97
2023-05-11T02:28:59.774Z,101768.19
2023-05-11T02:30:03.832Z,101783.66
2023-05-11T02:31:10.107Z,101779.97
2023-05-11T02:32:17.580Z,101778.97
2023-05-11T02:33:30.972Z,101777.97
2023-05-11T02:34:45.502Z,101772.97
2023-05-11T02:35:47.848Z,101776.66
2023-05-11T02:36:51.299Z,101781.53
2023-05-11T02:37:57.879Z,101776.28
2023-05-11T02:39:05.942Z,101776.28
2023-05-11T02:40:17.276Z,101781.66
2023-05-11T02:41:26.375Z,101769.19
2023-05-11T02:42:36.771Z,101776.28
2023-05-11T02:43:49.406Z,101771.75
2023-05-11T02:44:58.004Z,101772.03
2023-05-11T02:46:03.920Z,101765.50
2023-05-11T02:47:09.384Z,101771.19
2023-05-11T02:48:21.470Z,101753.09
2023-05-11T02:49:29.104Z,101773.88
2023-05-11T02:50:35.462Z,101772.03
2023-05-11T02:51:39.667Z,101778.56
2023-05-11T02:52:46.738Z,101776.88
2023-05-11T02:53:50.150Z,101776.88
2023-05-11T02:54:54.225Z,101777.88
2023-05-11T02:55:57.260Z,101772.63
2023-05-11T02:57:00.221Z,101777.16
2023-05-11T02:58:02.691Z,101777.16
2023-05-11T02:59:05.410Z,101775.59
2023-05-11T03:00:08.585Z,101772.78
2023-05-11T03:01:13.022Z,101778.28
2023-05-11T03:02:15.044Z,101783.53
2023-05-11T03:03:17.946Z,101770.69
2023-05-11T03:04:19.874Z,101775.59
2023-05-11T03:05:21.738Z,101766.72
2023-05-11T03:06:23.573Z,101781.97
2023-05-11T03:07:26.114Z,101760.22
2023-05-11T03:08:28.017Z,101786.53
2023-05-11T03:09:29.871Z,101776.91
2023-05-11T03:10:31.949Z,101778.59
2023-05-11T03:11:34.173Z,101781.28
2023-05-11T03:12:37.012Z,101790.22
2023-05-11T03:13:39.684Z,101786.66
2023-05-11T03:14:43.165Z,101760.66
2023-05-11T03:15:45.236Z,101784.84
2023-05-11T03:16:48.837Z,101789.53
2023-05-11T03:17:52.467Z,101779.19
2023-05-11T03:18:55.731Z,101792.22
2023-05-11T03:19:59.367Z,101798.44
2023-05-11T03:21:02.111Z,101796.59
2023-05-11T03:22:04.650Z,101783.44
2023-05-11T03:23:07.493Z,101789.38
2023-05-11T03:24:10.579Z,101793.91
2023-05-11T03:25:14.472Z,101791.22
2023-05-11T03:26:21.420Z,101791.22
2023-05-11T03:27:24.564Z,101793.75
2023-05-11T03:28:28.114Z,101793.75
2023-05-11T03:29:45.342Z,101794.31
2023-05-11T03:30:49.611Z,101794.31
2023-05-11T03:31:51.943Z,101792.63
2023-05-11T03:32:55.455Z,101799.00
2023-05-11T03:33:57.898Z,101791.06
2023-05-11T03:35:00.054Z,101791.91
2023-05-11T03:36:03.534Z,101801.00
2023-05-11T03:37:07.430Z,101794.75
2023-05-11T03:38:12.114Z,101798.13
2023-05-11T03:39:16.253Z,101795.44
2023-05-11T03:40:21.307Z,101793.63
2023-05-11T03:41:29.020Z,101803.25
2023-05-11T03:42:33.218Z,101798.72
2023-05-11T03:43:36.405Z,101803.09
2023-05-11T03:44:39.912Z,101805.97
2023-05-11T03:45:43.590Z,101807.66
2023-05-11T03:46:47.927Z,101799.41
2023-05-11T03:47:52.329Z,101802.09
2023-05-11T03:48:55.029Z,101806.34
2023-05-11T03:50:01.595Z,101792.50
2023-05-11T03:51:05.219Z,101798.41
2023-05-11T03:52:08.296Z,101806.34
2023-05-11T03:53:10.920Z,101790.22
2023-05-11T03:54:13.132Z,101786.53
2023-05-11T03:55:16.195Z,101802.66
2023-05-11T03:56:18.084Z,101807.19
2023-05-11T03:57:19.874Z,101806.19
2023-05-11T03:58:22.284Z,101795.19
2023-05-11T03:59:24.504Z,101806.34
2023-05-11T04:00:26.470Z,101803.50
2023-05-11T04:01:28.936Z,101803.50
2023-05-11T04:02:31.275Z,101810.59
2023-05-11T04:03:33.189Z,101802.66
2023-05-11T04:04:35.134Z,101811.44
2023-05-11T04:05:37.071Z,101811.44
2023-05-11T04:06:41.469Z,101807.75
2023-05-11T04:07:47.933Z,101811.28
2023-05-11T04:08:50.504Z,101808.59
2023-05-11T04:09:52.274Z,101812.16
2023-05-11T04:10:54.047Z,101812.16
2023-05-11T04:11:56.018Z,101814.84
2023-05-11T04:12:58.020Z,101800.97
2023-05-11T04:13:59.833Z,101814.84
2023-05-11T04:15:02.326Z,101813.84
2023-05-11T04:16:04.329Z,101816.53
2023-05-11T04:17:06.235Z,101816.38
2023-05-11T04:18:08.156Z,101810.97
2023-05-11T04:19:10.096Z,101810.97
2023-05-11T04:20:11.973Z,101814.53
2023-05-11T04:21:13.797Z,101815.38
2023-05-11T04:22:16.912Z,101817.06
2023-05-11T04:23:18.716Z,101814.38
2023-05-11T04:24:20.565Z,101808.59
2023-05-11T04:25:22.655Z,101813.38
2023-05-11T04:26:24.567Z,101821.47
2023-05-11T04:27:26.346Z,101807.84
2023-05-11T04:28:28.327Z,101818.47
2023-05-11T04:29:30.552Z,101814.94
2023-05-11T04:30:32.537Z,101812.09
2023-05-11T04:31:34.665Z,101819.19
2023-05-11T04:32:38.553Z,101809.25
2023-05-11T04:33:40.377Z,101812.81
2023-05-11T04:34:42.548Z,101818.19
2023-05-11T04:35:45.476Z,101816.50
2023-05-11T04:36:49.006Z,101813.66
2023-05-11T04:37:51.473Z,101816.22
2023-05-11T04:38:53.592Z,101808.97
2023-05-11T04:39:57.124Z,101812.50
2023-05-11T04:41:06.282Z,101812.50
2023-05-11T04:42:08.667Z,101814.91
2023-05-11T04:43:10.686Z,101812.22
2023-05-11T04:44:12.576Z,101805.16
2023-05-11T04:45:14.388Z,101810.53
2023-05-11T04:46:17.126Z,101816.75
2023-05-11T04:47:19.767Z,101818.44
2023-05-11T04:48:22.311Z,101813.03
2023-05-11T04:49:24.200Z,101815.91
2023-05-11T04:50:25.982Z,101811.22
2023-05-11T04:51:28.624Z,101813.03
2023-05-11T04:52:30.449Z,101813.91
2023-05-11T04:53:32.365Z,101815.75
2023-05-11T04:54:34.206Z,101818.31
2023-05-11T04:55:36.036Z,101813.91
2023-05-11T04:56:41.149Z,101818.31
2023-05-11T04:57:43.683Z,101817.31
2023-05-11T04:58:45.482Z,101818.31
2023-05-11T04:59:47.540Z,101815.59
2023-05-11T05:00:49.415Z,101820.13
2023-05-11T05:01:51.313Z,101803.72
2023-05-11T05:02:53.190Z,101817.44
2023-05-11T05:03:55.226Z,101821.00
2023-05-11T05:04:57.060Z,101824.53
2023-05-11T05:05:58.860Z,101814.63
2023-05-11T05:07:01.083Z,101818.13
2023-05-11T05:08:02.926Z,101819.84
2023-05-11T05:09:04.837Z,101810.22
2023-05-11T05:10:09.057Z,101822.38
2023-05-11T05:11:11.128Z,101825.47
2023-05-11T05:12:12.992Z,101816.41
2023-05-11T05:13:16.942Z,101815.00
2023-05-11T05:14:18.793Z,101819.50
2023-05-11T05:15:21.791Z,101817.53
2023-05-11T05:16:24.180Z,101818.22
2023-05-11T05:17:26.059Z,101818.78
2023-05-11T05:18:27.881Z,101811.00
2023-05-11T05:19:29.798Z,101813.78
2023-05-11T05:20:31.611Z,101815.31
2023-05-11T05:21:35.812Z,101821.28
2023-05-11T05:22:37.853Z,101819.97
2023-05-11T05:23:39.665Z,101815.13
2023-05-11T05:24:41.598Z,101814.66
2023-05-11T05:25:44.007Z,101809.97
2023-05-11T05:26:46.713Z,101815.91
2023-05-11T05:27:48.668Z,101822.69
2023-05-11T05:28:53.691Z,101818.69
2023-05-11T05:29:55.777Z,101828.16
2023-05-11T05:31:00.032Z,101823.31
2023-05-11T05:32:02.817Z,101824.84
2023-05-11T05:33:04.827Z,101821.84
2023-05-11T05:34:08.633Z,101821.41
2023-05-11T05:35:10.676Z,101832.75
2023-05-11T05:36:13.125Z,101821.63
2023-05-11T05:37:14.962Z,101826.72
2023-05-11T05:38:16.757Z,101819.31
2023-05-11T05:39:18.718Z,101831.53
2023-05-11T05:40:20.890Z,101821.44
2023-05-11T05:41:27.041Z,101826.38
2023-05-11T05:42:29.763Z,101826.88
2023-05-11T05:44:33.473Z,101820.19
2023-05-11T05:45:35.372Z,101827.13
2023-05-11T05:46:37.690Z,101820.88
2023-05-11T05:47:39.997Z,101818.53
2023-05-11T05:48:42.009Z,101827.34
2023-05-11T05:49:44.479Z,101819.94
2023-05-11T05:50:47.208Z,101826.31
2023-05-11T05:51:50.797Z,101817.94
2023-05-11T05:52:53.343Z,101824.72
2023-05-11T05:53:57.748Z,101820.84
2023-05-11T05:54:59.626Z,101825.25
2023-05-11T05:56:01.562Z,101822.41
2023-05-11T05:57:04.472Z,101818.69
2023-05-11T05:58:06.371Z,101824.78
2023-05-11T05:59:10.032Z,101827.47
2023-05-11T06:00:13.453Z,101823.59
2023-05-11T06:01:15.355Z,101824.28
2023-05-11T06:02:17.256Z,101817.19
2023-05-11T06:03:19.281Z,101822.28
2023-05-11T06:04:21.242Z,101824.84
2023-05-11T06:05:23.159Z,101824.84
2023-05-11T06:06:25.014Z,101822.97
2023-05-11T06:07:27.828Z,101828.22
2023-05-11T06:08:29.624Z,101828.09
2023-05-11T06:09:31.451Z,101837.00
2023-05-11T06:10:33.296Z,101833.31
2023-05-11T06:11:35.363Z,101819.44
2023-05-11T06:12:37.187Z,101830.59
2023-05-11T06:13:39.005Z,101829.59
2023-05-11T06:14:41.693Z,101825.91
2023-05-11T06:15:44.088Z,101825.91
2023-05-11T06:17:01.123Z,101826.25
2023-05-11T06:18:05.109Z,101827.28
2023-05-11T06:19:08.319Z,101827.44
2023-05-11T06:20:10.524Z,101829.97
2023-05-11T06:21:12.748Z,101822.38
2023-05-11T06:22:14.536Z,101837.25
2023-05-11T06:23:16.744Z,101830.97
2023-05-11T06:24:19.459Z,101828.28
2023-05-11T06:25:21.969Z,101832.66
2023-05-11T06:26:25.263Z,101833.53
2023-05-11T06:27:28.184Z,101834.38
2023-05-11T06:28:32.122Z,101829.81
2023-05-11T06:29:38.967Z,101836.06
2023-05-11T06:30:41.054Z,101839.63
2023-05-11T06:31:44.105Z,101830.66
2023-05-11T06:32:46.223Z,101834.22
2023-05-11T06:33:49.160Z,101832.34
2023-05-11T06:34:56.951Z,101830.34
2023-05-11T06:36:05.068Z,101831.34
2023-05-11T06:37:07.587Z,101829.34
2023-05-11T06:38:09.428Z,101838.31
2023-05-11T06:39:12.159Z,101834.91
2023-05-11T06:40:16.632Z,101832.22
2023-05-11T06:41:18.712Z,101830.34
2023-05-11T06:42:20.581Z,101834.72
2023-05-11T06:43:23.377Z,101823.25
2023-05-11T06:44:27.675Z,101833.91
2023-05-11T06:45:29.772Z,101830.50
2023-05-11T06:46:32.060Z,101826.94
2023-05-11T06:47:34.039Z,101828.50
2023-05-11T06:48:35.839Z,101829.34
2023-05-11T06:49:37.793Z,101833.72
2023-05-11T06:50:40.868Z,101837.44
2023-05-11T06:51:42.681Z,101826.63
2023-05-11T06:52:44.548Z,101832.03
2023-05-11T06:53:46.486Z,101841.00
2023-05-11T06:54:48.289Z,101826.63
2023-05-11T06:55:50.310Z,101831.19
2023-05-11T06:56:52.081Z,101826.63
2023-05-11T06:57:53.875Z,101829.34
2023-05-11T06:58:55.938Z,101839.13
2023-05-11T06:59:58.047Z,101831.34
2023-05-11T07:00:59.924Z,101825.63
2023-05-11T07:02:01.977Z,101826.63
2023-05-11T07:03:03.811Z,101829.19
2023-05-11T07:04:06.369Z,101805.97
2023-05-11T07:05:08.615Z,101821.09
2023-05-11T07:06:10.556Z,101819.84
2023-05-11T07:07:12.518Z,101825.63
2023-05-11T07:08:14.363Z,101814.13
2023-05-11T07:09:16.164Z,101829.19
2023-05-11T07:10:18.390Z,101822.91
2023-05-11T07:11:20.394Z,101826.50
2023-05-11T07:12:23.002Z,101825.63
2023-05-11T07:13:24.834Z,101824.63
2023-05-11T07:14:26.610Z,101828.19
2023-05-11T07:15:28.392Z,101824.47
2023-05-11T07:16:30.232Z,101827.16
2023-05-11T07:17:32.220Z,101820.53
2023-05-11T07:18:34.043Z,101829.00
2023-05-11T07:19:35.853Z,101827.16
2023-05-11T07:20:37.803Z,101830.72
2023-05-11T07:21:39.620Z,101816.16
2023-05-11T07:22:41.647Z,101833.41
2023-05-11T07:23:44.496Z,101827.03
2023-05-11T07:24:46.807Z,101824.31
2023-05-11T07:25:48.657Z,101834.16
2023-05-11T07:26:51.955Z,101831.47
2023-05-11T07:27:53.799Z,101838.56
2023-05-11T07:28:55.653Z,101838.56
2023-05-11T07:29:57.485Z,101840.38
2023-05-11T07:30:59.271Z,101828.59
2023-05-11T07:32:01.375Z,101830.59
2023-05-11T07:33:03.570Z,101831.28
2023-05-11T07:34:05.592Z,101841.94
2023-05-11T07:35:08.010Z,101833.84
2023-05-11T07:36:09.915Z,101831.13
2023-05-11T07:37:12.280Z,101837.38
2023-05-11T07:38:14.112Z,101838.22
2023-05-11T07:39:17.146Z,101832.84
2023-05-11T07:40:19.488Z,101835.53
2023-05-11T07:41:24.259Z,101839.06
2023-05-11T07:42:26.087Z,101828.25
2023-05-11T07:43:27.968Z,101843.31
2023-05-11T07:44:29.824Z,101838.91
2023-05-11T07:45:31.903Z,101840.63
2023-05-11T07:46:33.776Z,101837.91
2023-05-11T07:47:36.924Z,101836.91
2023-05-11T07:48:38.930Z,101844.00
2023-05-11T07:49:43.811Z,101844.00
2023-05-11T07:50:46.081Z,101846.53
2023-05-11T07:51:47.918Z,101846.72
2023-05-11T07:52:49.693Z,101846.53
2023-05-11T07:53:51.643Z,101850.09
2023-05-11T07:54:53.412Z,101842.13
2023-05-11T07:55:55.512Z,101855.50
2023-05-11T07:56:57.273Z,101849.22
2023-05-11T07:57:59.173Z,101850.09
2023-05-11T07:59:00.940Z,101851.94
2023-05-11T08:00:03.361Z,101851.78
2023-05-11T08:01:13.578Z,101850.59
2023-05-11T08:02:15.468Z,101848.91
2023-05-11T08:03:17.305Z,101848.09
2023-05-11T08:04:19.175Z,101853.47
2023-05-11T08:05:21.728Z,101855.31
2023-05-11T08:06:23.698Z,101845.53
2023-05-11T08:07:25.532Z,101846.38
2023-05-11T08:08:27.478Z,101845.38
2023-05-11T08:09:29.660Z,101847.22
2023-05-11T08:10:32.011Z,101853.47
2023-05-11T08:11:34.694Z,101855.31
2023-05-11T08:12:37.148Z,101853.47
2023-05-11T08:13:38.947Z,101856.00
2023-05-11T08:14:43.167Z,101850.78
2023-05-11T08:15:45.191Z,101847.91
2023-05-11T08:16:47.093Z,101849.78
2023-05-11T08:17:48.952Z,101855.19
2023-05-11T08:18:50.950Z,101855.19
2023-05-11T08:19:52.966Z,101856.88
2023-05-11T08:20:54.769Z,101857.88
2023-05-11T08:21:56.758Z,101856.00
2023-05-11T08:22:58.548Z,101854.31
2023-05-11T08:24:00.337Z,101857.88
2023-05-11T08:25:02.107Z,101857.00
2023-05-11T08:26:04.044Z,101852.47
2023-05-11T08:27:06.271Z,101855.19
2023-05-11T08:28:08.032Z,101856.00
2023-05-11T08:29:11.599Z,101858.88
2023-05-11T08:30:13.956Z,101851.78
2023-05-11T08:31:15.835Z,101851.47
2023-05-11T08:32:17.725Z,101856.88
2023-05-11T08:33:35.890Z,101856.00
2023-05-11T08:34:39.165Z,101855.38
2023-05-11T08:35:41.108Z,101858.25
2023-05-11T08:36:42.870Z,101855.69
2023-05-11T08:37:44.957Z,101864.78
2023-05-11T08:38:46.825Z,101862.97
2023-05-11T08:39:48.681Z,101867.50
2023-05-11T08:40:53.260Z,101855.19
2023-05-11T08:41:57.922Z,101856.00
2023-05-11T08:43:01.650Z,101859.41
2023-05-11T08:44:04.333Z,101858.56
2023-05-11T08:45:07.655Z,101859.41
2023-05-11T08:46:11.353Z,101859.41
2023-05-11T08:48:21.088Z,101861.09
2023-05-11T08:49:23.712Z,101864.66
2023-05-11T08:50:25.584Z,101865.66
2023-05-11T08:51:28.396Z,101864.44
2023-05-11T08:52:30.553Z,101863.78
2023-05-11T08:53:32.865Z,101862.09
2023-05-11T08:54:34.760Z,101867.34
2023-05-11T08:55:39.055Z,101865.66
2023-05-11T08:56:41.890Z,101869.06
2023-05-11T08:57:46.019Z,101864.66
2023-05-11T08:58:50.172Z,101876.28
2023-05-11T08:59:53.419Z,101865.34
2023-05-11T09:00:55.909Z,101866.50
2023-05-11T09:01:59.273Z,101868.03
2023-05-11T09:03:02.556Z,101863.66
2023-05-11T09:04:06.855Z,101864.47
2023-05-11T09:05:09.791Z,101862.63
2023-05-11T09:06:11.745Z,101863.47
2023-05-11T09:07:16.748Z,101863.66
2023-05-11T09:08:19.633Z,101865.34
2023-05-11T09:09:21.554Z,101858.25
2023-05-11T09:10:23.448Z,101870.75
2023-05-11T09:11:25.473Z,101853.16
2023-05-11T09:12:28.569Z,101845.84
2023-05-11T09:13:32.129Z,101855.69
2023-05-11T09:14:34.170Z,101870.59
2023-05-11T09:15:38.087Z,101860.75
2023-05-11T09:16:40.279Z,101862.63
2023-05-11T09:17:42.165Z,101859.78
2023-05-11T09:18:51.922Z,101856.22
2023-05-11T09:20:05.842Z,101863.88
2023-05-11T09:21:07.690Z,101858.28
2023-05-11T09:22:09.592Z,101856.78
2023-05-11T09:23:11.427Z,101855.91
2023-05-11T09:24:13.608Z,101856.09
2023-05-11T09:25:17.769Z,101853.38
2023-05-11T09:26:21.247Z,101850.81
2023-05-11T09:27:24.951Z,101851.69
2023-05-11T09:28:27.551Z,101842.19
2023-05-11T09:29:30.583Z,101836.94
2023-05-11T09:30:34.156Z,101850.50
2023-05-11T09:31:43.136Z,101858.59
2023-05-11T09:32:49.099Z,101855.75
2023-05-11T09:34:09.163Z,101851.88
2023-05-11T09:35:31.402Z,101850.22
2023-05-11T09:36:33.559Z,101853.94
2023-05-11T09:37:35.665Z,101859.66
2023-05-11T09:38:37.666Z,101838.84
2023-05-11T09:39:57.181Z,101850.19
2023-05-11T09:41:03.271Z,101851.41
2023-05-11T09:42:19.579Z,101849.84
2023-05-11T09:43:28.413Z,101855.81
2023-05-11T09:44:32.117Z,101847.84
2023-05-11T09:45:44.873Z,101838.03
2023-05-11T09:46:47.573Z,101847.84
2023-05-11T09:47:49.692Z,101848.84
2023-05-11T09:49:00.386Z,101849.84
2023-05-11T09:50:16.533Z,101846.69
2023-05-11T09:51:30.957Z,101836.69
2023-05-11T09:52:32.832Z,101848.38
2023-05-11T09:53:46.154Z,101830.22
2023-05-11T09:54:51.182Z,101841.41
2023-05-11T09:55:54.967Z,101837.88
2023-05-11T09:57:00.172Z,101838.91
2023-05-11T09:58:02.389Z,101838.91
2023-05-11T09:59:04.166Z,101839.03
2023-05-11T10:00:14.647Z,101839.91
2023-05-11T10:01:18.567Z,101838.91
2023-05-11T10:02:23.690Z,101840.91
2023-05-11T10:03:26.725Z,101835.34
2023-05-11T10:04:31.752Z,101837.34
2023-05-11T10:05:36.061Z,101829.94
2023-05-11T10:06:49.910Z,101834.19
2023-05-11T10:08:02.850Z,101834.69
2023-05-11T10:09:10.751Z,101829.28
2023-05-11T10:10:13.697Z,101826.22
2023-05-11T10:11:15.892Z,101829.78
2023-05-11T10:12:21.331Z,101833.31
2023-05-11T10:13:24.355Z,101822.50
2023-05-11T10:14:28.383Z,101821.66
2023-05-11T10:15:35.289Z,101831.63
2023-05-11T10:16:37.669Z,101831.28
2023-05-11T10:17:41.226Z,101831.28
2023-05-11T10:18:44.221Z,101829.59
2023-05-11T10:19:49.245Z,101824.19
2023-05-11T10:20:51.523Z,101818.78
2023-05-11T10:21:55.347Z,101825.06
2023-05-11T10:22:57.171Z,101822.19
2023-05-11T10:23:59.704Z,101825.88
2023-05-11T10:25:03.145Z,101819.97
2023-05-11T10:26:06.084Z,101824.06
2023-05-11T10:27:08.828Z,101824.88
2023-05-11T10:28:11.339Z,101826.56
2023-05-11T10:29:13.988Z,101813.72
2023-05-11T10:30:16.534Z,101822.19
2023-05-11T10:31:24.151Z,101816.78
2023-05-11T10:32:26.331Z,101817.63
2023-05-11T10:33:28.999Z,101821.84
2023-05-11T10:34:32.360Z,101826.44
2023-05-11T10:35:38.071Z,101822.84
2023-05-11T10:36:40.006Z,101821.84
2023-05-11T10:37:45.545Z,101815.63
2023-05-11T10:38:47.399Z,101819.84
2023-05-11T10:39:50.598Z,101818.13
2023-05-11T10:40:57.914Z,101816.44
2023-05-11T10:42:15.288Z,101813.44
2023-05-11T10:43:36.743Z,101807.53
2023-05-11T10:44:46.639Z,101816.31
2023-05-11T10:45:54.556Z,101809.41
2023-05-11T10:47:23.439Z,101812.47
2023-05-11T10:48:34.305Z,101807.22
2023-05-11T10:49:57.230Z,101808.06
2023-05-11T10:51:02.081Z,101806.38
2023-05-11T10:52:21.373Z,101797.59
2023-05-11T10:53:40.030Z,101810.78
2023-05-11T10:55:04.932Z,101763.38
2023-05-11T10:56:28.593Z,101797.25
2023-05-11T10:57:47.822Z,101800.66
2023-05-11T10:59:17.438Z,101794.38
2023-05-11T11:00:56.251Z,101801.00
2023-05-11T11:02:01.476Z,101800.13
2023-05-11T11:03:14.430Z,101796.25
2023-05-11T11:04:17.409Z,101793.88
2023-05-11T11:05:36.390Z,101799.28
2023-05-11T11:06:41.701Z,101787.78
2023-05-11T11:08:08.697Z,101792.19
2023-05-11T11:09:16.322Z,101788.47
2023-05-11T11:10:34.268Z,101793.88
2023-05-11T11:11:39.298Z,101770.50
2023-05-11T11:13:01.095Z,101784.22
2023-05-11T11:14:05.920Z,101783.06
2023-05-11T11:15:08.991Z,101785.06
2023-05-11T11:16:12.708Z,101780.00
2023-05-11T11:17:16.548Z,101774.59
2023-05-11T11:18:24.392Z,101781.00
2023-05-11T11:19:29.770Z,101778.31
2023-05-11T11:20:47.208Z,101787.41
2023-05-11T11:21:49.026Z,101788.63
2023-05-11T11:22:51.216Z,101789.81
2023-05-11T11:23:53.030Z,101797.91
2023-05-11T11:24:54.910Z,101793.50
2023-05-11T11:25:56.936Z,101780.84
2023-05-11T11:26:58.756Z,101792.66
2023-05-11T11:28:00.639Z,101786.41
2023-05-11T11:29:08.689Z,101795.34
2023-05-11T11:30:20.295Z,101792.31
2023-05-11T11:31:27.541Z,101774.22
2023-05-11T11:32:29.561Z,101790.16
2023-05-11T11:33:32.633Z,101781.50
2023-05-11T11:34:36.534Z,101784.75
2023-05-11T11:35:41.584Z,101791.16
2023-05-11T11:37:15.044Z,101796.09
2023-05-11T11:38:18.729Z,101790.00
2023-05-11T11:39:26.820Z,101777.31
2023-05-11T11:40:54.830Z,101788.50
2023-05-11T11:42:08.248Z,101789.38
2023-05-11T11:43:12.617Z,101801.19
2023-05-11T11:44:22.224Z,101778.84
2023-05-11T11:45:30.064Z,101782.41
2023-05-11T11:46:31.990Z,101789.53
2023-05-11T11:47:33.892Z,101794.06
2023-05-11T11:48:40.699Z,101790.53
2023-05-11T11:50:11.536Z,101790.59
2023-05-11T11:51:13.939Z,101803.78
2023-05-11T11:52:27.924Z,101798.38
2023-05-11T11:53:39.540Z,101800.06
2023-05-11T11:54:43.831Z,101796.34
2023-05-11T11:55:51.152Z,101794.66
2023-05-11T11:56:53.664Z,101783.81
2023-05-11T11:57:55.470Z,101787.19
2023-05-11T11:59:02.916Z,101788.34
2023-05-11T12:00:13.074Z,101789.09
2023-05-11T12:01:15.899Z,101784.34
2023-05-11T12:02:18.170Z,101783.50
2023-05-11T12:03:23.726Z,101794.31
2023-05-11T12:04:49.841Z,101787.88
2023-05-11T12:05:57.677Z,101776.06
2023-05-11T12:06:59.761Z,101791.66
2023-05-11T12:08:06.341Z,101788.44
2023-05-11T12:09:08.642Z,101791.66
2023-05-11T12:10:13.729Z,101804.47
2023-05-11T12:11:17.792Z,101794.50
2023-05-11T12:12:21.059Z,101797.91
2023-05-11T12:13:24.123Z,101809.59
2023-05-11T12:14:27.527Z,101797.06
2023-05-11T12:15:32.423Z,101797.91
2023-05-11T12:16:34.284Z,101786.56
2023-05-11T12:17:38.944Z,101789.78
2023-05-11T12:18:42.344Z,101774.72
2023-05-11T12:19:44.907Z,101783.22